Northampton, New York
Current Conditions -  °F | °C
As of 5:53 PM on Wednesday 17 Dec 2014 (Local Time) from KFOK Reporting Station
Overcast Overcast  
Wind Chill: 44°   Ceiling: 4700
Heat Index: 48°   Visibility: 10mi
Dew Point: 37°   Wind: 9mph
Humidity: 66%   Direction: 280°W
Pressure: 29.83"   Gusts: NA
Location:  40.953°N, 72.642°W
Report Text: KFOK 172253Z 28008KT 10SM FEW037 OVC047 09/03 A2983 RMK AO2 SLP102 T00890028
Loading
Personal Weather Stations






























Interactive Weather Map New forecast layout! Learn more

10-Day Weather Forecast

Advertisements
Track Severe Weather on mobile